sensor_id;sensor_type;location;lat;lon;timestamp;pressure;altitude;pressure_sealevel;temperature;humidity
78014;BME280;67222;50.182;8.734;2023-07-31T04:31:28;100181.59;;;17.62;67.37
78014;BME280;67222;50.182;8.734;2023-07-31T04:33:53;100171.38;;;17.64;68.45
78014;BME280;67222;50.182;8.734;2023-07-31T04:36:19;100175.25;;;17.68;67.34
78014;BME280;67222;50.182;8.734;2023-07-31T04:38:44;100179.34;;;17.75;67.94
78014;BME280;67222;50.182;8.734;2023-07-31T04:41:09;100175.31;;;17.78;68.31
78014;BME280;67222;50.182;8.734;2023-07-31T04:43:35;100172.31;;;17.74;68.57
78014;BME280;67222;50.182;8.734;2023-07-31T04:46:00;100175.00;;;17.74;68.61
78014;BME280;67222;50.182;8.734;2023-07-31T04:48:25;100169.41;;;17.81;68.86
78014;BME280;67222;50.182;8.734;2023-07-31T04:50:50;100176.91;;;17.74;67.45
78014;BME280;67222;50.182;8.734;2023-07-31T04:53:16;100173.69;;;17.77;68.38
78014;BME280;67222;50.182;8.734;2023-07-31T04:55:41;100174.47;;;17.72;67.79
78014;BME280;67222;50.182;8.734;2023-07-31T04:58:06;100173.69;;;17.77;67.27
78014;BME280;67222;50.182;8.734;2023-07-31T05:00:32;100186.84;;;17.68;67.18
78014;BME280;67222;50.182;8.734;2023-07-31T05:02:57;100181.75;;;17.72;69.76
78014;BME280;67222;50.182;8.734;2023-07-31T05:05:22;100180.13;;;17.71;68.17
78014;BME280;67222;50.182;8.734;2023-07-31T05:07:47;100184.72;;;17.75;69.06
78014;BME280;67222;50.182;8.734;2023-07-31T05:10:13;100178.13;;;17.66;67.99
78014;BME280;67222;50.182;8.734;2023-07-31T05:12:38;100166.94;;;17.74;68.13
78014;BME280;67222;50.182;8.734;2023-07-31T05:15:04;100173.47;;;17.83;68.96
78014;BME280;67222;50.182;8.734;2023-07-31T05:17:29;100168.59;;;17.80;68.69
78014;BME280;67222;50.182;8.734;2023-07-31T05:19:54;100161.28;;;17.76;67.61
78014;BME280;67222;50.182;8.734;2023-07-31T05:22:20;100172.72;;;17.88;67.67
78014;BME280;67222;50.182;8.734;2023-07-31T05:24:45;100177.03;;;17.89;68.40
78014;BME280;67222;50.182;8.734;2023-07-31T05:27:10;100180.25;;;17.86;66.91
78014;BME280;67222;50.182;8.734;2023-07-31T05:29:37;100181.09;;;17.92;67.31
78014;BME280;67222;50.182;8.734;2023-07-31T05:32:02;100180.25;;;17.86;67.63
78014;BME280;67222;50.182;8.734;2023-07-31T05:34:28;100179.66;;;17.84;67.94
78014;BME280;67222;50.182;8.734;2023-07-31T05:36:53;100176.47;;;17.87;68.33
78014;BME280;67222;50.182;8.734;2023-07-31T05:39:18;100175.25;;;17.68;67.39
78014;BME280;67222;50.182;8.734;2023-07-31T05:41:45;100172.31;;;17.74;67.58
78014;BME280;67222;50.182;8.734;2023-07-31T05:44:10;100175.78;;;17.70;68.23
78014;BME280;67222;50.182;8.734;2023-07-31T05:46:35;100168.25;;;17.72;68.92
78014;BME280;67222;50.182;8.734;2023-07-31T05:49:01;100171.78;;;17.72;69.34
78014;BME280;67222;50.182;8.734;2023-07-31T05:51:26;100173.47;;;17.83;68.87
78014;BME280;67222;50.182;8.734;2023-07-31T05:53:52;100173.22;;;17.85;68.85
78014;BME280;67222;50.182;8.734;2023-07-31T05:56:18;100168.84;;;17.79;69.00
78014;BME280;67222;50.182;8.734;2023-07-31T05:58:43;100159.97;;;17.83;69.71
78014;BME280;67222;50.182;8.734;2023-07-31T06:01:08;100147.81;;;17.81;70.12
78014;BME280;67222;50.182;8.734;2023-07-31T06:03:34;100159.78;;;17.90;68.75
78014;BME280;67222;50.182;8.734;2023-07-31T06:05:59;100153.31;;;17.91;68.82
78014;BME280;67222;50.182;8.734;2023-07-31T06:08:25;100158.69;;;17.91;68.57
78014;BME280;67222;50.182;8.734;2023-07-31T06:10:50;100154.94;;;17.92;68.63
78014;BME280;67222;50.182;8.734;2023-07-31T06:13:15;100161.41;;;17.91;68.81
78014;BME280;67222;50.182;8.734;2023-07-31T06:15:41;100154.81;;;17.77;67.88
78014;BME280;67222;50.182;8.734;2023-07-31T06:18:06;100152.75;;;17.89;67.97
78014;BME280;67222;50.182;8.734;2023-07-31T06:20:33;100150.59;;;17.91;68.34
78014;BME280;67222;50.182;8.734;2023-07-31T06:22:59;100146.31;;;17.95;69.54
78014;BME280;67222;50.182;8.734;2023-07-31T06:25:24;100149.84;;;18.01;67.89
78014;BME280;67222;50.182;8.734;2023-07-31T06:27:50;100157.13;;;18.00;68.10
78014;BME280;67222;50.182;8.734;2023-07-31T06:30:15;100149.34;;;18.04;67.30
78014;BME280;67222;50.182;8.734;2023-07-31T06:32:40;100153.41;;;18.06;67.43
78014;BME280;67222;50.182;8.734;2023-07-31T06:35:06;100151.63;;;18.22;68.00
78014;BME280;67222;50.182;8.734;2023-07-31T06:37:31;100162.63;;;18.15;67.83
78014;BME280;67222;50.182;8.734;2023-07-31T06:39:57;100148.06;;;18.16;67.77
78014;BME280;67222;50.182;8.734;2023-07-31T06:42:22;100155.97;;;18.23;66.72
78014;BME280;67222;50.182;8.734;2023-07-31T06:44:47;100170.53;;;18.22;66.60
78014;BME280;67222;50.182;8.734;2023-07-31T06:47:13;100179.94;;;18.20;67.12
78014;BME280;67222;50.182;8.734;2023-07-31T06:49:38;100163.66;;;18.04;65.59
78014;BME280;67222;50.182;8.734;2023-07-31T06:52:04;100159.06;;;18.05;65.70
78014;BME280;67222;50.182;8.734;2023-07-31T06:54:29;100161.03;;;18.20;66.91
78014;BME280;67222;50.182;8.734;2023-07-31T06:56:54;100168.38;;;18.24;66.71
78014;BME280;67222;50.182;8.734;2023-07-31T06:59:20;100157.59;;;18.29;67.11
78014;BME280;67222;50.182;8.734;2023-07-31T07:01:45;100147.72;;;18.45;66.40
78014;BME280;67222;50.182;8.734;2023-07-31T07:04:10;100149.34;;;18.46;65.97
78014;BME280;67222;50.182;8.734;2023-07-31T07:06:36;100153.09;;;18.45;66.32
78014;BME280;67222;50.182;8.734;2023-07-31T07:09:01;100146.63;;;18.46;65.49
78014;BME280;67222;50.182;8.734;2023-07-31T07:11:27;100165.50;;;18.41;65.73
78014;BME280;67222;50.182;8.734;2023-07-31T07:13:52;100166.19;;;18.21;65.68
78014;BME280;67222;50.182;8.734;2023-07-31T07:16:19;100154.34;;;18.27;65.86
78014;BME280;67222;50.182;8.734;2023-07-31T07:18:44;100160.03;;;18.26;66.81
78014;BME280;67222;50.182;8.734;2023-07-31T07:21:09;100144.66;;;18.31;66.76
78014;BME280;67222;50.182;8.734;2023-07-31T07:23:39;100140.63;;;18.39;66.09
78014;BME280;67222;50.182;8.734;2023-07-31T07:26:05;100141.13;;;18.26;65.55
78014;BME280;67222;50.182;8.734;2023-07-31T07:28:30;100134.97;;;18.35;65.89
78014;BME280;67222;50.182;8.734;2023-07-31T07:30:55;100126.66;;;18.52;66.00
78014;BME280;67222;50.182;8.734;2023-07-31T07:33:20;100126.19;;;18.60;65.56
78014;BME280;67222;50.182;8.734;2023-07-31T07:35:46;100128.66;;;18.67;65.81
78014;BME280;67222;50.182;8.734;2023-07-31T07:38:11;100117.59;;;18.68;64.66
78014;BME280;67222;50.182;8.734;2023-07-31T07:40:40;100104.91;;;18.74;65.84
78014;BME280;67222;50.182;8.734;2023-07-31T07:43:05;100113.81;;;18.74;65.62
78014;BME280;67222;50.182;8.734;2023-07-31T07:45:30;100113.84;;;18.80;65.74
78014;BME280;67222;50.182;8.734;2023-07-31T07:47:56;100112.78;;;18.86;65.89
78014;BME280;67222;50.182;8.734;2023-07-31T07:50:21;100111.44;;;18.93;64.09
78014;BME280;67222;50.182;8.734;2023-07-31T07:52:46;100100.94;;;19.02;64.70
78014;BME280;67222;50.182;8.734;2023-07-31T07:55:12;100109.59;;;19.04;65.23
78014;BME280;67222;50.182;8.734;2023-07-31T07:57:37;100121.75;;;19.12;66.10
78014;BME280;67222;50.182;8.734;2023-07-31T08:00:02;100110.13;;;19.11;64.80
78014;BME280;67222;50.182;8.734;2023-07-31T08:02:28;100116.13;;;19.18;64.55
78014;BME280;67222;50.182;8.734;2023-07-31T08:04:53;100112.31;;;19.24;65.05
78014;BME280;67222;50.182;8.734;2023-07-31T08:07:18;100108.53;;;19.25;64.51
78014;BME280;67222;50.182;8.734;2023-07-31T08:09:43;100112.34;;;19.40;65.04
78014;BME280;67222;50.182;8.734;2023-07-31T08:12:09;100105.03;;;19.45;66.35
78014;BME280;67222;50.182;8.734;2023-07-31T08:14:34;100106.69;;;19.36;65.53
78014;BME280;67222;50.182;8.734;2023-07-31T08:17:00;100104.22;;;19.45;64.56
78014;BME280;67222;50.182;8.734;2023-07-31T08:19:25;100098.84;;;19.34;64.38
78014;BME280;67222;50.182;8.734;2023-07-31T08:21:51;100106.66;;;19.46;64.88
78014;BME280;67222;50.182;8.734;2023-07-31T08:24:16;100093.41;;;19.50;64.31
78014;BME280;67222;50.182;8.734;2023-07-31T08:26:42;100089.63;;;19.46;64.74
78014;BME280;67222;50.182;8.734;2023-07-31T08:29:07;100088.00;;;19.45;64.34
78014;BME280;67222;50.182;8.734;2023-07-31T08:31:33;100086.66;;;19.47;64.52
78014;BME280;67222;50.182;8.734;2023-07-31T08:34:00;100076.97;;;19.56;64.28
78014;BME280;67222;50.182;8.734;2023-07-31T08:36:25;100086.66;;;19.47;65.08
78014;BME280;67222;50.182;8.734;2023-07-31T08:38:50;100082.63;;;19.60;64.58
78014;BME280;67222;50.182;8.734;2023-07-31T08:41:16;100073.69;;;19.70;66.06
78014;BME280;67222;50.182;8.734;2023-07-31T08:43:49;100071.25;;;19.78;64.74
78014;BME280;67222;50.182;8.734;2023-07-31T08:46:15;100074.50;;;19.80;64.03
78014;BME280;67222;50.182;8.734;2023-07-31T08:48:42;100070.97;;;19.90;63.86
78014;BME280;67222;50.182;8.734;2023-07-31T08:51:08;100070.69;;;19.91;63.54
78014;BME280;67222;50.182;8.734;2023-07-31T08:53:33;100066.31;;;20.06;63.76
78014;BME280;67222;50.182;8.734;2023-07-31T08:55:59;100067.94;;;20.12;63.25
78014;BME280;67222;50.182;8.734;2023-07-31T08:58:27;100061.94;;;20.20;63.77
78014;BME280;67222;50.182;8.734;2023-07-31T09:00:56;100072.22;;;20.23;62.51
78014;BME280;67222;50.182;8.734;2023-07-31T09:03:24;100081.94;;;20.34;63.18
78014;BME280;67222;50.182;8.734;2023-07-31T09:05:51;100081.16;;;20.29;61.53
78014;BME280;67222;50.182;8.734;2023-07-31T09:08:19;100072.75;;;20.25;62.17
78014;BME280;67222;50.182;8.734;2023-07-31T09:10:46;100083.00;;;20.33;62.38
78014;BME280;67222;50.182;8.734;2023-07-31T09:13:12;100063.22;;;20.38;62.35
78014;BME280;67222;50.182;8.734;2023-07-31T09:15:39;100055.38;;;20.41;60.08
78014;BME280;67222;50.182;8.734;2023-07-31T09:18:05;100052.97;;;20.30;61.63
78014;BME280;67222;50.182;8.734;2023-07-31T09:20:31;100059.44;;;20.44;61.20
78014;BME280;67222;50.182;8.734;2023-07-31T09:23:05;100057.81;;;20.38;61.28
78014;BME280;67222;50.182;8.734;2023-07-31T09:25:31;100054.03;;;20.34;61.58
78014;BME280;67222;50.182;8.734;2023-07-31T09:28:00;100051.06;;;20.30;60.88
78014;BME280;67222;50.182;8.734;2023-07-31T09:30:25;100064.09;;;20.18;60.99
78014;BME280;67222;50.182;8.734;2023-07-31T09:33:00;100048.94;;;20.17;61.07
78014;BME280;67222;50.182;8.734;2023-07-31T09:35:32;100049.22;;;20.15;61.54
78014;BME280;67222;50.182;8.734;2023-07-31T09:38:00;100057.66;;;20.09;63.44
78014;BME280;67222;50.182;8.734;2023-07-31T09:40:30;100051.69;;;20.07;63.71
78014;BME280;67222;50.182;8.734;2023-07-31T09:43:11;100058.72;;;20.03;62.70
78014;BME280;67222;50.182;8.734;2023-07-31T09:46:13;100068.78;;;19.92;64.71
78014;BME280;67222;50.182;8.734;2023-07-31T09:48:39;100059.88;;;19.66;66.76
78014;BME280;67222;50.182;8.734;2023-07-31T09:51:04;100064.47;;;19.40;67.36
78014;BME280;67222;50.182;8.734;2023-07-31T09:53:30;100049.06;;;19.20;70.03
78014;BME280;67222;50.182;8.734;2023-07-31T09:55:58;100055.00;;;19.27;70.36
78014;BME280;67222;50.182;8.734;2023-07-31T09:58:23;100040.44;;;19.39;68.76
78014;BME280;67222;50.182;8.734;2023-07-31T10:00:50;100046.34;;;19.46;67.64
78014;BME280;67222;50.182;8.734;2023-07-31T10:03:15;100035.84;;;19.59;66.72
78014;BME280;67222;50.182;8.734;2023-07-31T10:05:46;100033.94;;;19.65;65.80
78014;BME280;67222;50.182;8.734;2023-07-31T10:08:15;100028.75;;;19.84;66.31
78014;BME280;67222;50.182;8.734;2023-07-31T10:10:42;100011.13;;;19.96;65.91
78014;BME280;67222;50.182;8.734;2023-07-31T10:13:08;100004.31;;;20.09;64.72
78014;BME280;67222;50.182;8.734;2023-07-31T10:15:34;99993.91;;;20.42;64.33
78014;BME280;67222;50.182;8.734;2023-07-31T10:18:01;99995.09;;;20.70;63.56
78014;BME280;67222;50.182;8.734;2023-07-31T10:20:27;99990.97;;;20.82;61.88
78014;BME280;67222;50.182;8.734;2023-07-31T10:22:55;99987.28;;;21.02;62.27
78014;BME280;67222;50.182;8.734;2023-07-31T10:25:22;100000.28;;;21.00;60.50
78014;BME280;67222;50.182;8.734;2023-07-31T10:27:47;99997.03;;;21.03;58.95
78014;BME280;67222;50.182;8.734;2023-07-31T10:30:15;99984.41;;;21.17;60.01
78014;BME280;67222;50.182;8.734;2023-07-31T10:32:43;99986.59;;;21.15;58.73
78014;BME280;67222;50.182;8.734;2023-07-31T10:35:09;99977.63;;;21.25;60.00
78014;BME280;67222;50.182;8.734;2023-07-31T10:37:39;99970.91;;;21.12;58.38
78014;BME280;67222;50.182;8.734;2023-07-31T10:40:07;99967.59;;;21.21;58.86
78014;BME280;67222;50.182;8.734;2023-07-31T10:45:10;99972.94;;;21.31;57.28
78014;BME280;67222;50.182;8.734;2023-07-31T10:47:43;99991.19;;;21.25;57.56
78014;BME280;67222;50.182;8.734;2023-07-31T10:50:17;99978.75;;;21.14;57.06
78014;BME280;67222;50.182;8.734;2023-07-31T10:52:46;99969.28;;;21.11;57.83
78014;BME280;67222;50.182;8.734;2023-07-31T10:55:32;99970.72;;;21.04;57.52
78014;BME280;67222;50.182;8.734;2023-07-31T10:58:22;99962.16;;;20.92;59.85
78014;BME280;67222;50.182;8.734;2023-07-31T11:00:47;99957.34;;;20.78;58.53
78014;BME280;67222;50.182;8.734;2023-07-31T11:03:25;99967.38;;;20.83;60.17
78014;BME280;67222;50.182;8.734;2023-07-31T11:08:30;99957.41;;;21.07;58.52
78014;BME280;67222;50.182;8.734;2023-07-31T11:13:28;99946.28;;;21.38;57.94
78014;BME280;67222;50.182;8.734;2023-07-31T11:15:54;99943.56;;;21.67;58.11
78014;BME280;67222;50.182;8.734;2023-07-31T11:18:19;99957.06;;;21.96;56.51
78014;BME280;67222;50.182;8.734;2023-07-31T11:20:45;99946.47;;;22.18;56.80
78014;BME280;67222;50.182;8.734;2023-07-31T11:23:11;99949.19;;;22.18;55.84
78014;BME280;67222;50.182;8.734;2023-07-31T11:25:38;99942.28;;;22.07;53.34
78014;BME280;67222;50.182;8.734;2023-07-31T11:28:08;99950.00;;;22.38;55.02
78014;BME280;67222;50.182;8.734;2023-07-31T11:30:34;99941.03;;;22.75;55.41
78014;BME280;67222;50.182;8.734;2023-07-31T11:33:04;99946.38;;;23.31;52.49
78014;BME280;67222;50.182;8.734;2023-07-31T11:35:32;99929.66;;;23.51;50.00
78014;BME280;67222;50.182;8.734;2023-07-31T11:37:57;99945.53;;;23.17;51.30
78014;BME280;67222;50.182;8.734;2023-07-31T11:40:23;99925.31;;;22.90;52.29
78014;BME280;67222;50.182;8.734;2023-07-31T11:42:54;99938.94;;;22.53;52.27
78014;BME280;67222;50.182;8.734;2023-07-31T11:45:19;99925.09;;;22.30;53.76
78014;BME280;67222;50.182;8.734;2023-07-31T11:47:45;99918.28;;;22.14;53.63
78014;BME280;67222;50.182;8.734;2023-07-31T11:50:11;99930.94;;;22.00;54.00
78014;BME280;67222;50.182;8.734;2023-07-31T11:52:40;99932.44;;;21.87;53.63
78014;BME280;67222;50.182;8.734;2023-07-31T11:55:08;99916.16;;;21.87;54.27
78014;BME280;67222;50.182;8.734;2023-07-31T11:57:36;99911.84;;;21.86;55.61
78014;BME280;67222;50.182;8.734;2023-07-31T12:00:02;99909.94;;;21.87;55.43
78014;BME280;67222;50.182;8.734;2023-07-31T12:02:28;99912.13;;;21.85;54.74
78014;BME280;67222;50.182;8.734;2023-07-31T12:04:53;99909.69;;;21.83;54.51
78014;BME280;67222;50.182;8.734;2023-07-31T12:07:19;99916.97;;;21.88;54.19
78014;BME280;67222;50.182;8.734;2023-07-31T12:09:56;99907.59;;;21.99;53.22
78014;BME280;67222;50.182;8.734;2023-07-31T12:12:25;99914.72;;;21.95;55.29
78014;BME280;67222;50.182;8.734;2023-07-31T12:14:50;99899.50;;;21.94;53.76
78014;BME280;67222;50.182;8.734;2023-07-31T12:17:17;99903.88;;;21.95;54.54
78014;BME280;67222;50.182;8.734;2023-07-31T12:19:43;99897.44;;;21.86;54.56
78014;BME280;67222;50.182;8.734;2023-07-31T12:22:13;99901.34;;;21.80;55.60
78014;BME280;67222;50.182;8.734;2023-07-31T12:24:40;99895.44;;;21.72;55.04
78014;BME280;67222;50.182;8.734;2023-07-31T12:27:13;99905.34;;;21.63;56.44
78014;BME280;67222;50.182;8.734;2023-07-31T12:29:39;99907.56;;;21.56;54.28
78014;BME280;67222;50.182;8.734;2023-07-31T12:32:22;99892.34;;;21.60;56.33
78014;BME280;67222;50.182;8.734;2023-07-31T12:34:47;99885.13;;;21.51;55.96
78014;BME280;67222;50.182;8.734;2023-07-31T12:37:13;99887.22;;;21.59;56.01
78014;BME280;67222;50.182;8.734;2023-07-31T12:39:38;99891.28;;;21.56;56.69
78014;BME280;67222;50.182;8.734;2023-07-31T12:42:04;99876.41;;;21.54;55.97
78014;BME280;67222;50.182;8.734;2023-07-31T12:44:29;99869.31;;;21.58;55.61
78014;BME280;67222;50.182;8.734;2023-07-31T12:46:55;99870.97;;;21.54;56.11
78014;BME280;67222;50.182;8.734;2023-07-31T12:49:20;99871.66;;;21.64;54.72
78014;BME280;67222;50.182;8.734;2023-07-31T12:51:45;99866.75;;;21.66;55.81
78014;BME280;67222;50.182;8.734;2023-07-31T12:54:10;99852.69;;;21.64;57.31
78014;BME280;67222;50.182;8.734;2023-07-31T12:56:36;99858.75;;;21.75;55.72
78014;BME280;67222;50.182;8.734;2023-07-31T12:59:01;99853.31;;;21.99;54.68
78014;BME280;67222;50.182;8.734;2023-07-31T13:01:26;99833.94;;;22.24;56.08
78014;BME280;67222;50.182;8.734;2023-07-31T13:03:52;99832.50;;;22.46;53.54
78014;BME280;67222;50.182;8.734;2023-07-31T13:06:17;99827.44;;;22.58;53.79
78014;BME280;67222;50.182;8.734;2023-07-31T13:08:42;99821.38;;;22.61;52.93
78014;BME280;67222;50.182;8.734;2023-07-31T13:11:08;99840.75;;;22.73;52.80
78014;BME280;67222;50.182;8.734;2023-07-31T13:13:33;99821.53;;;22.70;53.71
78014;BME280;67222;50.182;8.734;2023-07-31T13:15:58;99830.09;;;22.77;52.25
78014;BME280;67222;50.182;8.734;2023-07-31T13:18:24;99824.44;;;22.73;52.29
78014;BME280;67222;50.182;8.734;2023-07-31T13:20:49;99826.31;;;22.59;52.85
78014;BME280;67222;50.182;8.734;2023-07-31T13:23:14;99830.19;;;22.72;54.63
78014;BME280;67222;50.182;8.734;2023-07-31T13:25:39;99828.06;;;22.69;53.00
78014;BME280;67222;50.182;8.734;2023-07-31T13:28:05;99834.78;;;22.57;53.35
78014;BME280;67222;50.182;8.734;2023-07-31T13:30:30;99842.97;;;22.39;53.10
78014;BME280;67222;50.182;8.734;2023-07-31T13:32:55;99832.69;;;22.35;53.28
78014;BME280;67222;50.182;8.734;2023-07-31T13:35:20;99839.16;;;22.21;53.61
78014;BME280;67222;50.182;8.734;2023-07-31T13:37:46;99837.66;;;22.28;53.01
78014;BME280;67222;50.182;8.734;2023-07-31T13:40:11;99833.56;;;22.31;53.89
78014;BME280;67222;50.182;8.734;2023-07-31T13:42:36;99828.78;;;22.42;53.25
78014;BME280;67222;50.182;8.734;2023-07-31T13:45:02;99826.78;;;22.47;54.48
78014;BME280;67222;50.182;8.734;2023-07-31T13:47:27;99820.38;;;22.57;52.99
78014;BME280;67222;50.182;8.734;2023-07-31T13:49:52;99835.88;;;22.56;53.31
78014;BME280;67222;50.182;8.734;2023-07-31T13:52:18;99814.75;;;22.53;53.38
78014;BME280;67222;50.182;8.734;2023-07-31T13:54:43;99811.91;;;22.58;53.70
78014;BME280;67222;50.182;8.734;2023-07-31T13:57:08;99816.28;;;22.41;54.70
78014;BME280;67222;50.182;8.734;2023-07-31T13:59:34;99818.22;;;22.40;54.41
78014;BME280;67222;50.182;8.734;2023-07-31T14:01:59;99813.06;;;22.39;55.76
78014;BME280;67222;50.182;8.734;2023-07-31T14:04:24;99817.31;;;22.45;54.07
78014;BME280;67222;50.182;8.734;2023-07-31T14:06:49;99820.63;;;22.42;54.26
78014;BME280;67222;50.182;8.734;2023-07-31T14:09:15;99819.16;;;22.30;54.57
78014;BME280;67222;50.182;8.734;2023-07-31T14:11:41;99810.53;;;22.10;55.09
78014;BME280;67222;50.182;8.734;2023-07-31T14:14:06;99807.25;;;22.13;55.97
78014;BME280;67222;50.182;8.734;2023-07-31T14:16:31;99809.66;;;22.14;54.73
78014;BME280;67222;50.182;8.734;2023-07-31T14:18:57;99812.16;;;22.11;55.61
78014;BME280;67222;50.182;8.734;2023-07-31T14:21:24;99800.63;;;22.00;54.67
78014;BME280;67222;50.182;8.734;2023-07-31T14:23:50;99803.13;;;21.96;55.80
78014;BME280;67222;50.182;8.734;2023-07-31T14:26:15;99797.59;;;21.83;55.39
78014;BME280;67222;50.182;8.734;2023-07-31T14:28:41;99801.78;;;21.75;56.53
78014;BME280;67222;50.182;8.734;2023-07-31T14:31:07;99792.81;;;21.74;55.81
78014;BME280;67222;50.182;8.734;2023-07-31T14:33:32;99806.53;;;21.64;56.97
78014;BME280;67222;50.182;8.734;2023-07-31T14:35:57;99803.03;;;21.64;56.31
78014;BME280;67222;50.182;8.734;2023-07-31T14:38:22;99811.75;;;21.61;56.25
78014;BME280;67222;50.182;8.734;2023-07-31T14:40:48;99806.66;;;21.54;56.34
78014;BME280;67222;50.182;8.734;2023-07-31T14:43:14;99786.75;;;21.64;56.64
78014;BME280;67222;50.182;8.734;2023-07-31T14:45:40;99776.31;;;21.71;57.22
78014;BME280;67222;50.182;8.734;2023-07-31T14:48:05;99779.84;;;21.90;57.38
78014;BME280;67222;50.182;8.734;2023-07-31T14:50:30;99766.13;;;22.00;55.90
78014;BME280;67222;50.182;8.734;2023-07-31T14:52:56;99792.97;;;22.02;56.82
78014;BME280;67222;50.182;8.734;2023-07-31T14:55:21;99777.19;;;22.04;56.06
78014;BME280;67222;50.182;8.734;2023-07-31T14:57:47;99787.97;;;21.90;56.44
78014;BME280;67222;50.182;8.734;2023-07-31T15:00:12;99782.75;;;21.94;56.15
78014;BME280;67222;50.182;8.734;2023-07-31T15:02:38;99777.50;;;21.84;56.20
78014;BME280;67222;50.182;8.734;2023-07-31T15:05:04;99770.69;;;21.86;56.70
78014;BME280;67222;50.182;8.734;2023-07-31T15:07:30;99770.53;;;21.77;56.96
78014;BME280;67222;50.182;8.734;2023-07-31T15:09:55;99785.06;;;21.87;57.98
78014;BME280;67222;50.182;8.734;2023-07-31T15:12:21;99775.22;;;21.72;57.51
78014;BME280;67222;50.182;8.734;2023-07-31T15:14:48;99776.78;;;21.78;56.26
78014;BME280;67222;50.182;8.734;2023-07-31T15:17:13;99778.19;;;21.75;56.29
78014;BME280;67222;50.182;8.734;2023-07-31T15:19:38;99782.63;;;21.66;57.86
78014;BME280;67222;50.182;8.734;2023-07-31T15:22:04;99781.16;;;21.55;57.78
78014;BME280;67222;50.182;8.734;2023-07-31T15:24:29;99783.81;;;21.60;57.37
78014;BME280;67222;50.182;8.734;2023-07-31T15:26:55;99781.09;;;21.60;57.07
78014;BME280;67222;50.182;8.734;2023-07-31T15:29:20;99786.66;;;21.50;58.07
78014;BME280;67222;50.182;8.734;2023-07-31T15:31:47;99787.72;;;21.30;58.29
78014;BME280;67222;50.182;8.734;2023-07-31T15:34:13;99789.25;;;21.36;58.99
78014;BME280;67222;50.182;8.734;2023-07-31T15:36:39;99780.69;;;21.29;58.20
78014;BME280;67222;50.182;8.734;2023-07-31T15:39:04;99788.38;;;21.17;57.98
78014;BME280;67222;50.182;8.734;2023-07-31T15:41:30;99778.94;;;21.14;57.87
78014;BME280;67222;50.182;8.734;2023-07-31T15:43:56;99776.50;;;21.13;57.51
78014;BME280;67222;50.182;8.734;2023-07-31T15:46:21;99778.13;;;21.14;57.63
78014;BME280;67222;50.182;8.734;2023-07-31T15:48:46;99773.50;;;21.14;57.53
78014;BME280;67222;50.182;8.734;2023-07-31T15:51:12;99777.91;;;21.10;57.70
78014;BME280;67222;50.182;8.734;2023-07-31T15:53:37;99771.97;;;21.08;57.61
78014;BME280;67222;50.182;8.734;2023-07-31T15:56:03;99773.88;;;21.08;57.40
78014;BME280;67222;50.182;8.734;2023-07-31T15:58:28;99765.84;;;20.98;57.87
78014;BME280;67222;50.182;8.734;2023-07-31T16:00:54;99774.31;;;20.91;58.44
78014;BME280;67222;50.182;8.734;2023-07-31T16:03:19;99770.00;;;20.90;59.08
78014;BME280;67222;50.182;8.734;2023-07-31T16:05:47;99777.03;;;20.91;59.63
78014;BME280;67222;50.182;8.734;2023-07-31T16:08:12;99780.03;;;20.90;59.81
78014;BME280;67222;50.182;8.734;2023-07-31T16:10:37;99787.63;;;20.88;57.97
78014;BME280;67222;50.182;8.734;2023-07-31T16:13:03;99777.41;;;20.79;57.67
78014;BME280;67222;50.182;8.734;2023-07-31T16:15:28;99773.16;;;20.73;57.87
78014;BME280;67222;50.182;8.734;2023-07-31T16:17:54;99776.22;;;20.62;59.04
78014;BME280;67222;50.182;8.734;2023-07-31T16:20:20;99781.38;;;20.63;58.02
78014;BME280;67222;50.182;8.734;2023-07-31T16:22:45;99791.44;;;20.58;58.43
78014;BME280;67222;50.182;8.734;2023-07-31T16:25:11;99772.53;;;20.52;58.53
78014;BME280;67222;50.182;8.734;2023-07-31T16:27:36;99773.16;;;20.44;58.86
78014;BME280;67222;50.182;8.734;2023-07-31T16:30:02;99778.53;;;20.49;59.24
78014;BME280;67222;50.182;8.734;2023-07-31T16:32:28;99772.59;;;20.47;59.91
78014;BME280;67222;50.182;8.734;2023-07-31T16:34:54;99767.06;;;20.58;59.05
78014;BME280;67222;50.182;8.734;2023-07-31T16:37:19;99764.13;;;20.54;59.56
78014;BME280;67222;50.182;8.734;2023-07-31T16:39:45;99759.06;;;20.47;60.02
78014;BME280;67222;50.182;8.734;2023-07-31T16:42:13;99759.88;;;20.43;59.50
78014;BME280;67222;50.182;8.734;2023-07-31T16:44:38;99738.22;;;20.43;61.24
78014;BME280;67222;50.182;8.734;2023-07-31T16:47:04;99743.63;;;20.48;60.71
78014;BME280;67222;50.182;8.734;2023-07-31T16:49:29;99736.81;;;20.50;60.28
78014;BME280;67222;50.182;8.734;2023-07-31T16:51:55;99731.41;;;20.50;60.14
78014;BME280;67222;50.182;8.734;2023-07-31T16:54:20;99722.16;;;20.51;59.77
78014;BME280;67222;50.182;8.734;2023-07-31T16:56:45;99723.63;;;20.68;59.59
78014;BME280;67222;50.182;8.734;2023-07-31T16:59:13;99715.50;;;20.68;58.15
78014;BME280;67222;50.182;8.734;2023-07-31T17:01:38;99710.38;;;20.66;59.04
78014;BME280;67222;50.182;8.734;2023-07-31T17:04:04;99712.72;;;20.73;59.15
78014;BME280;67222;50.182;8.734;2023-07-31T17:06:29;99711.69;;;20.69;58.77
78014;BME280;67222;50.182;8.734;2023-07-31T17:08:54;99704.81;;;20.76;58.57
78014;BME280;67222;50.182;8.734;2023-07-31T17:11:21;99712.97;;;20.76;60.40
78014;BME280;67222;50.182;8.734;2023-07-31T17:13:46;99714.41;;;20.69;59.45
78014;BME280;67222;50.182;8.734;2023-07-31T17:16:11;99718.22;;;20.68;59.97
78014;BME280;67222;50.182;8.734;2023-07-31T17:18:37;99720.97;;;20.63;59.73
78014;BME280;67222;50.182;8.734;2023-07-31T17:21:02;99704.75;;;20.58;59.06
78014;BME280;67222;50.182;8.734;2023-07-31T17:23:27;99701.66;;;20.45;59.93
78014;BME280;67222;50.182;8.734;2023-07-31T17:25:53;99708.16;;;20.39;60.47
78014;BME280;67222;50.182;8.734;2023-07-31T17:28:18;99714.13;;;20.41;61.10